This is the latest recevied weather packets stored in our database for station/object DG0PX-12. If no packets are shown the sender has not sent any weather packets the latest 10 day(s).
| Time | Temp. | Humidity | Pressure | Rain* | Wind** | Luminosity | Snow |
|---|---|---|---|---|---|---|---|
| 1788128099 | 26.11° C | 58% | 949.5 hPa | - | - | - | - |
| 1788127199 | 26.11° C | 53% | 949.1 hPa | - | - | - | - |
| 1788126299 | 25° C | 55% | 948.7 hPa | - | - | - | - |
| 1788125399 | 25° C | 55% | 948.8 hPa | - | - | - | - |
| 1788124498 | 28.33° C | 48% | 949 hPa | - | - | - | - |
| 1788123598 | 28.33° C | 47% | 949.1 hPa | - | - | - | - |
| 1788122698 | 27.22° C | 51% | 949 hPa | - | - | - | - |
| 1788121798 | 27.78° C | 49% | 949 hPa | - | - | - | - |
| 1788120898 | 26.67° C | 54% | 948.9 hPa | - | - | - | - |
| 1788119998 | 27.78° C | 50% | 949.1 hPa | - | - | - | - |
| 1788119098 | 27.78° C | 51% | 949 hPa | - | - | - | - |
| 1788118198 | 28.89° C | 46% | 949 hPa | - | - | - | - |
| 1788117298 | 28.33° C | 52% | 948.9 hPa | - | - | - | - |
| 1788116398 | 28.89° C | 48% | 948.7 hPa | - | - | - | - |
| 1788115498 | 28.89° C | 49% | 948.8 hPa | - | - | - | - |
| 1788114597 | 30.56° C | 45% | 948.8 hPa | - | - | - | - |
| 1788113697 | 30° C | 45% | 948.5 hPa | - | - | - | - |
| 1788112797 | 31.11° C | 43% | 948.3 hPa | - | - | - | - |
| 1788111897 | 30.56° C | 42% | 948.2 hPa | - | - | - | - |
| 1788110997 | 32.78° C | 37% | 948.1 hPa | - | - | - | - |
| 1788110097 | 33.89° C | 30% | 948.4 hPa | - | - | - | - |
| 1788109197 | 33.33° C | 31% | 948.3 hPa | - | - | - | - |
| 1788108297 | 35° C | 27% | 948.5 hPa | - | - | - | - |
| 1788107397 | 33.89° C | 28% | 948.4 hPa | - | - | - | - |
| 1788106497 | 32.78° C | 30% | 948.3 hPa | - | - | - | - |
* Rain since midnight (hover to see other rain measurements)
** Current wind speed in m/s (hover to see current wind gust speed)